createdAt,value
2023-11-15T00:07:25.203Z,10.43
2023-11-15T00:17:31.929Z,10.50
2023-11-15T00:27:34.955Z,10.48
2023-11-15T00:37:39.070Z,10.48
2023-11-15T00:47:42.038Z,10.52
2023-11-15T00:57:46.416Z,10.54
2023-11-15T01:07:49.545Z,10.53
2023-11-15T01:17:54.382Z,9.78
2023-11-15T01:27:57.424Z,9.74
2023-11-15T01:38:02.061Z,10.67
2023-11-15T01:48:05.833Z,10.61
2023-11-15T01:58:10.615Z,10.20
2023-11-15T02:08:14.426Z,10.80
2023-11-15T02:18:19.252Z,10.81
2023-11-15T02:28:23.756Z,10.61
2023-11-15T02:38:26.605Z,10.46
2023-11-15T02:48:31.002Z,10.71
2023-11-15T02:58:33.875Z,10.75
2023-11-15T03:08:38.801Z,10.72
2023-11-15T03:18:43.981Z,10.71
2023-11-15T03:28:48.312Z,10.77
2023-11-15T03:38:54.065Z,10.46
2023-11-15T03:48:58.248Z,10.69
2023-11-15T04:09:20.139Z,10.52
2023-11-15T04:19:24.047Z,10.63
2023-11-15T04:29:28.170Z,10.68
2023-11-15T04:39:30.973Z,10.73
2023-11-15T04:49:35.061Z,10.80
2023-11-15T04:59:38.082Z,10.74
2023-11-15T05:09:42.397Z,10.73
2023-11-15T05:19:45.466Z,10.73
2023-11-15T05:29:51.665Z,10.70
2023-11-15T05:39:54.639Z,10.68
2023-11-15T05:49:58.754Z,10.42
2023-11-15T06:00:01.962Z,10.72
2023-11-15T06:10:16.737Z,10.71
2023-11-15T06:20:20.200Z,10.70
2023-11-15T06:30:25.030Z,10.53
2023-11-15T06:40:27.904Z,10.69
2023-11-15T06:50:35.598Z,10.23
2023-11-15T07:00:38.379Z,10.74
2023-11-15T07:10:43.519Z,10.75
2023-11-15T07:20:47.980Z,10.82
2023-11-15T07:30:56.922Z,10.97
2023-11-15T07:41:01.328Z,11.14
2023-11-15T07:51:06.636Z,11.24
2023-11-15T08:01:10.873Z,11.34
2023-11-15T08:11:16.420Z,11.33
2023-11-15T08:21:19.453Z,11.47
2023-11-15T08:31:24.853Z,11.65
2023-11-15T08:41:28.086Z,12.20
2023-11-15T08:51:33.233Z,12.20
2023-11-15T09:01:36.258Z,12.37
2023-11-15T09:11:41.739Z,12.55
2023-11-15T09:21:48.428Z,12.63
2023-11-15T09:31:55.278Z,12.41
2023-11-15T09:42:01.228Z,12.83
2023-11-15T09:52:06.793Z,13.49
2023-11-15T10:02:12.435Z,12.91
2023-11-15T10:12:19.942Z,13.52
2023-11-15T10:22:24.119Z,14.06
2023-11-15T10:32:35.993Z,13.47
2023-11-15T10:42:40.843Z,14.27
2023-11-15T10:52:45.453Z,14.94
2023-11-15T11:02:51.098Z,14.40
2023-11-15T11:12:57.433Z,17.75
2023-11-15T11:23:12.895Z,22.09
2023-11-15T11:33:20.757Z,21.02
2023-11-15T11:43:24.172Z,16.14
2023-11-15T11:53:28.799Z,14.98
2023-11-15T12:03:32.772Z,15.12
2023-11-15T12:13:49.577Z,14.23
2023-11-15T12:23:52.686Z,13.49
2023-11-15T12:33:57.057Z,13.42
2023-11-15T12:44:04.300Z,13.96
2023-11-15T12:54:10.051Z,14.62
2023-11-15T13:04:13.686Z,14.65
2023-11-15T13:14:23.319Z,15.20
2023-11-15T13:24:27.370Z,13.76
2023-11-15T13:34:32.502Z,14.07
2023-11-15T13:44:35.958Z,13.83
2023-11-15T13:54:40.199Z,13.44
2023-11-15T14:04:43.704Z,13.46
2023-11-15T14:14:48.279Z,13.71
2023-11-15T14:24:51.417Z,13.99
2023-11-15T14:34:55.817Z,13.10
2023-11-15T14:44:58.771Z,12.38
2023-11-15T14:55:07.745Z,11.96
2023-11-15T15:05:11.347Z,11.72
2023-11-15T15:15:17.751Z,11.49
2023-11-15T15:25:20.989Z,10.86
2023-11-15T15:35:25.224Z,10.86
2023-11-15T15:45:28.350Z,10.60
2023-11-15T15:55:32.729Z,10.42
2023-11-15T16:05:35.748Z,10.46
2023-11-15T16:15:40.194Z,10.26
2023-11-15T16:25:43.202Z,10.17
2023-11-15T16:35:49.498Z,9.94
2023-11-15T16:45:52.447Z,9.50
2023-11-15T16:55:56.758Z,9.15
2023-11-15T17:06:00.073Z,9.03
2023-11-15T17:16:04.751Z,8.91
2023-11-15T17:26:08.454Z,8.63
2023-11-15T17:36:12.926Z,8.36
2023-11-15T17:46:16.020Z,8.01
2023-11-15T17:56:20.253Z,7.69
2023-11-15T18:06:24.366Z,7.88
2023-11-15T18:16:31.082Z,7.77
2023-11-15T18:26:36.683Z,7.47
2023-11-15T18:36:44.349Z,7.50
2023-11-15T18:46:53.011Z,7.00
2023-11-15T18:56:58.650Z,7.47
2023-11-15T19:07:01.709Z,7.25
2023-11-15T19:17:07.441Z,7.27
2023-11-15T19:27:10.460Z,7.31
2023-11-15T19:37:15.014Z,7.81
2023-11-15T19:47:18.143Z,7.93
2023-11-15T19:57:23.083Z,8.00
2023-11-15T20:07:27.299Z,7.87
2023-11-15T20:17:33.092Z,7.72
2023-11-15T20:27:37.572Z,7.26
2023-11-15T20:37:41.933Z,7.39
2023-11-15T20:47:45.282Z,7.28
2023-11-15T20:57:50.369Z,7.04
2023-11-15T21:07:53.522Z,6.73
2023-11-15T21:17:58.079Z,6.94
2023-11-15T21:28:01.028Z,6.99
2023-11-15T21:38:05.980Z,6.97
2023-11-15T21:48:09.066Z,7.09
2023-11-15T21:58:13.449Z,7.22
2023-11-15T22:08:16.636Z,7.30
2023-11-15T22:18:23.383Z,7.53
2023-11-15T22:28:28.197Z,7.58
2023-11-15T22:38:32.474Z,7.55
2023-11-15T22:48:37.403Z,8.17
2023-11-15T22:58:41.630Z,8.23
2023-11-15T23:08:45.517Z,7.91
2023-11-15T23:18:49.850Z,8.33
2023-11-15T23:28:53.282Z,8.41
2023-11-15T23:38:57.669Z,8.43
2023-11-15T23:49:00.820Z,8.51
2023-11-15T23:59:05.280Z,8.34
